sensor_id;sensor_type;location;lat;lon;timestamp;P1;durP1;ratioP1;P2;durP2;ratioP2
56680;SDS011;42558;52.388;13.390;2023-05-10T00:00:33;14.44;;;9.50;;
56680;SDS011;42558;52.388;13.390;2023-05-10T00:03:02;11.78;;;8.55;;
56680;SDS011;42558;52.388;13.390;2023-05-10T00:05:33;13.87;;;9.31;;
56680;SDS011;42558;52.388;13.390;2023-05-10T00:08:02;13.49;;;8.36;;
56680;SDS011;42558;52.388;13.390;2023-05-10T00:14:33;15.01;;;9.12;;
56680;SDS011;42558;52.388;13.390;2023-05-10T00:17:03;15.58;;;8.74;;
56680;SDS011;42558;52.388;13.390;2023-05-10T00:19:33;13.11;;;9.12;;
56680;SDS011;42558;52.388;13.390;2023-05-10T00:22:02;14.06;;;8.93;;
56680;SDS011;42558;52.388;13.390;2023-05-10T00:24:32;14.44;;;8.93;;
56680;SDS011;42558;52.388;13.390;2023-05-10T00:27:02;15.96;;;10.07;;
56680;SDS011;42558;52.388;13.390;2023-05-10T00:29:33;17.29;;;10.07;;
56680;SDS011;42558;52.388;13.390;2023-05-10T00:32:03;14.44;;;10.26;;
56680;SDS011;42558;52.388;13.390;2023-05-10T00:34:33;14.06;;;9.88;;
56680;SDS011;42558;52.388;13.390;2023-05-10T00:37:03;12.73;;;9.88;;
56680;SDS011;42558;52.388;13.390;2023-05-10T00:39:33;15.20;;;9.50;;
56680;SDS011;42558;52.388;13.390;2023-05-10T00:42:03;18.43;;;10.45;;
56680;SDS011;42558;52.388;13.390;2023-05-10T00:44:36;15.01;;;9.88;;
56680;SDS011;42558;52.388;13.390;2023-05-10T00:47:05;16.34;;;10.26;;
56680;SDS011;42558;52.388;13.390;2023-05-10T00:49:34;18.81;;;10.07;;
56680;SDS011;42558;52.388;13.390;2023-05-10T00:52:04;15.39;;;9.12;;
56680;SDS011;42558;52.388;13.390;2023-05-10T00:54:33;17.48;;;10.45;;
56680;SDS011;42558;52.388;13.390;2023-05-10T00:57:02;13.30;;;9.31;;
56680;SDS011;42558;52.388;13.390;2023-05-10T00:59:30;16.34;;;9.50;;
56680;SDS011;42558;52.388;13.390;2023-05-10T01:01:58;15.96;;;9.69;;
56680;SDS011;42558;52.388;13.390;2023-05-10T01:04:27;14.63;;;10.83;;
56680;SDS011;42558;52.388;13.390;2023-05-10T01:06:55;13.87;;;9.31;;
56680;SDS011;42558;52.388;13.390;2023-05-10T01:09:24;14.82;;;10.45;;
56680;SDS011;42558;52.388;13.390;2023-05-10T01:11:56;15.77;;;10.83;;
56680;SDS011;42558;52.388;13.390;2023-05-10T01:14:26;14.06;;;9.88;;
56680;SDS011;42558;52.388;13.390;2023-05-10T01:16:57;20.52;;;10.45;;
56680;SDS011;42558;52.388;13.390;2023-05-10T01:19:31;16.53;;;10.45;;
56680;SDS011;42558;52.388;13.390;2023-05-10T01:31:30;15.39;;;11.21;;
56680;SDS011;42558;52.388;13.390;2023-05-10T01:34:16;15.58;;;10.83;;
56680;SDS011;42558;52.388;13.390;2023-05-10T01:37:20;15.96;;;11.21;;
56680;SDS011;42558;52.388;13.390;2023-05-10T01:40:00;18.05;;;10.83;;
56680;SDS011;42558;52.388;13.390;2023-05-10T01:42:49;16.91;;;10.83;;
56680;SDS011;42558;52.388;13.390;2023-05-10T01:45:33;14.63;;;10.83;;
56680;SDS011;42558;52.388;13.390;2023-05-10T01:48:10;12.92;;;10.07;;
56680;SDS011;42558;52.388;13.390;2023-05-10T01:50:43;17.29;;;11.21;;
56680;SDS011;42558;52.388;13.390;2023-05-10T01:53:18;14.25;;;9.69;;
56680;SDS011;42558;52.388;13.390;2023-05-10T01:55:55;17.29;;;11.02;;
56680;SDS011;42558;52.388;13.390;2023-05-10T01:58:33;15.96;;;9.50;;
56680;SDS011;42558;52.388;13.390;2023-05-10T02:01:06;16.53;;;11.97;;
56680;SDS011;42558;52.388;13.390;2023-05-10T02:03:38;18.81;;;11.59;;
56680;SDS011;42558;52.388;13.390;2023-05-10T02:06:10;19.38;;;11.21;;
56680;SDS011;42558;52.388;13.390;2023-05-10T02:08:45;15.58;;;10.64;;
56680;SDS011;42558;52.388;13.390;2023-05-10T02:11:17;16.91;;;10.26;;
56680;SDS011;42558;52.388;13.390;2023-05-10T02:13:51;21.28;;;11.40;;
56680;SDS011;42558;52.388;13.390;2023-05-10T02:16:24;17.10;;;11.59;;
56680;SDS011;42558;52.388;13.390;2023-05-10T02:18:55;13.49;;;10.07;;
56680;SDS011;42558;52.388;13.390;2023-05-10T02:21:27;19.57;;;11.59;;
56680;SDS011;42558;52.388;13.390;2023-05-10T02:23:55;19.95;;;11.78;;
56680;SDS011;42558;52.388;13.390;2023-05-10T02:26:28;17.86;;;11.02;;
56680;SDS011;42558;52.388;13.390;2023-05-10T02:29:02;15.01;;;9.88;;
56680;SDS011;42558;52.388;13.390;2023-05-10T02:31:33;20.14;;;11.40;;
56680;SDS011;42558;52.388;13.390;2023-05-10T02:34:04;17.48;;;10.83;;
56680;SDS011;42558;52.388;13.390;2023-05-10T02:36:37;15.77;;;11.40;;
56680;SDS011;42558;52.388;13.390;2023-05-10T02:39:07;18.62;;;11.21;;
56680;SDS011;42558;52.388;13.390;2023-05-10T02:41:41;15.58;;;11.40;;
56680;SDS011;42558;52.388;13.390;2023-05-10T02:44:14;16.72;;;11.02;;
56680;SDS011;42558;52.388;13.390;2023-05-10T02:46:44;18.43;;;11.59;;
56680;SDS011;42558;52.388;13.390;2023-05-10T02:49:15;19.57;;;11.97;;
56680;SDS011;42558;52.388;13.390;2023-05-10T02:51:50;15.01;;;10.07;;
56680;SDS011;42558;52.388;13.390;2023-05-10T02:54:29;15.01;;;10.45;;
56680;SDS011;42558;52.388;13.390;2023-05-10T02:57:04;17.67;;;11.97;;
56680;SDS011;42558;52.388;13.390;2023-05-10T02:59:35;19.57;;;11.40;;
56680;SDS011;42558;52.388;13.390;2023-05-10T03:02:04;17.48;;;11.78;;
56680;SDS011;42558;52.388;13.390;2023-05-10T03:04:32;16.53;;;10.83;;
56680;SDS011;42558;52.388;13.390;2023-05-10T03:07:02;17.86;;;12.16;;
56680;SDS011;42558;52.388;13.390;2023-05-10T03:09:32;16.72;;;11.59;;
56680;SDS011;42558;52.388;13.390;2023-05-10T03:12:38;17.29;;;11.40;;
56680;SDS011;42558;52.388;13.390;2023-05-10T03:15:37;18.24;;;11.97;;
56680;SDS011;42558;52.388;13.390;2023-05-10T03:18:29;15.96;;;11.02;;
56680;SDS011;42558;52.388;13.390;2023-05-10T03:21:07;16.53;;;10.45;;
56680;SDS011;42558;52.388;13.390;2023-05-10T03:23:50;18.05;;;11.59;;
56680;SDS011;42558;52.388;13.390;2023-05-10T03:26:29;18.43;;;11.40;;
56680;SDS011;42558;52.388;13.390;2023-05-10T03:29:00;16.53;;;10.83;;
56680;SDS011;42558;52.388;13.390;2023-05-10T03:31:31;21.28;;;11.97;;
56680;SDS011;42558;52.388;13.390;2023-05-10T03:34:02;21.09;;;11.97;;
56680;SDS011;42558;52.388;13.390;2023-05-10T03:36:32;19.57;;;11.40;;
56680;SDS011;42558;52.388;13.390;2023-05-10T03:39:02;17.10;;;11.59;;
56680;SDS011;42558;52.388;13.390;2023-05-10T03:41:32;18.24;;;12.16;;
56680;SDS011;42558;52.388;13.390;2023-05-10T03:44:01;20.71;;;11.97;;
56680;SDS011;42558;52.388;13.390;2023-05-10T03:46:31;16.72;;;11.02;;
56680;SDS011;42558;52.388;13.390;2023-05-10T03:49:01;17.86;;;11.78;;
56680;SDS011;42558;52.388;13.390;2023-05-10T03:51:31;16.53;;;11.78;;
56680;SDS011;42558;52.388;13.390;2023-05-10T03:54:01;18.24;;;11.40;;
56680;SDS011;42558;52.388;13.390;2023-05-10T03:56:31;17.29;;;11.21;;
56680;SDS011;42558;52.388;13.390;2023-05-10T03:59:01;20.71;;;12.16;;
56680;SDS011;42558;52.388;13.390;2023-05-10T04:01:36;18.62;;;11.40;;
56680;SDS011;42558;52.388;13.390;2023-05-10T04:04:06;15.20;;;10.26;;
56680;SDS011;42558;52.388;13.390;2023-05-10T04:06:37;16.91;;;10.64;;
56680;SDS011;42558;52.388;13.390;2023-05-10T04:09:07;15.20;;;9.88;;
56680;SDS011;42558;52.388;13.390;2023-05-10T04:11:37;18.24;;;10.64;;
56680;SDS011;42558;52.388;13.390;2023-05-10T04:14:07;13.87;;;9.69;;
56680;SDS011;42558;52.388;13.390;2023-05-10T04:16:37;14.82;;;10.45;;
56680;SDS011;42558;52.388;13.390;2023-05-10T04:19:07;19.95;;;10.45;;
56680;SDS011;42558;52.388;13.390;2023-05-10T04:21:36;17.86;;;11.02;;
56680;SDS011;42558;52.388;13.390;2023-05-10T04:24:06;14.82;;;10.26;;
56680;SDS011;42558;52.388;13.390;2023-05-10T04:26:36;15.77;;;9.69;;
56680;SDS011;42558;52.388;13.390;2023-05-10T04:29:06;15.96;;;8.55;;
56680;SDS011;42558;52.388;13.390;2023-05-10T04:31:36;14.63;;;9.31;;
56680;SDS011;42558;52.388;13.390;2023-05-10T04:34:06;16.91;;;10.45;;
56680;SDS011;42558;52.388;13.390;2023-05-10T04:36:36;17.10;;;10.26;;
56680;SDS011;42558;52.388;13.390;2023-05-10T04:39:06;17.29;;;9.31;;
56680;SDS011;42558;52.388;13.390;2023-05-10T04:41:37;19.38;;;9.88;;
56680;SDS011;42558;52.388;13.390;2023-05-10T04:44:07;16.34;;;9.31;;
56680;SDS011;42558;52.388;13.390;2023-05-10T04:46:37;15.96;;;9.50;;
56680;SDS011;42558;52.388;13.390;2023-05-10T04:49:07;15.96;;;9.31;;
56680;SDS011;42558;52.388;13.390;2023-05-10T04:51:36;16.53;;;9.12;;
56680;SDS011;42558;52.388;13.390;2023-05-10T04:54:06;14.25;;;9.88;;
56680;SDS011;42558;52.388;13.390;2023-05-10T04:56:36;15.58;;;8.55;;
56680;SDS011;42558;52.388;13.390;2023-05-10T04:59:06;12.73;;;7.79;;
56680;SDS011;42558;52.388;13.390;2023-05-10T05:01:36;16.72;;;8.93;;
56680;SDS011;42558;52.388;13.390;2023-05-10T05:04:06;11.78;;;7.98;;
56680;SDS011;42558;52.388;13.390;2023-05-10T05:06:36;15.77;;;9.69;;
56680;SDS011;42558;52.388;13.390;2023-05-10T05:09:06;14.25;;;7.79;;
56680;SDS011;42558;52.388;13.390;2023-05-10T05:11:34;12.54;;;8.17;;
56680;SDS011;42558;52.388;13.390;2023-05-10T05:14:02;12.35;;;7.79;;
56680;SDS011;42558;52.388;13.390;2023-05-10T05:16:31;12.73;;;7.22;;
56680;SDS011;42558;52.388;13.390;2023-05-10T05:18:59;17.10;;;7.98;;
56680;SDS011;42558;52.388;13.390;2023-05-10T05:21:28;16.15;;;7.22;;
56680;SDS011;42558;52.388;13.390;2023-05-10T05:23:56;12.73;;;7.22;;
56680;SDS011;42558;52.388;13.390;2023-05-10T05:26:26;12.92;;;7.98;;
56680;SDS011;42558;52.388;13.390;2023-05-10T05:28:53;14.06;;;7.41;;
56680;SDS011;42558;52.388;13.390;2023-05-10T05:31:21;12.35;;;7.79;;
56680;SDS011;42558;52.388;13.390;2023-05-10T05:33:50;10.83;;;6.27;;
56680;SDS011;42558;52.388;13.390;2023-05-10T05:36:18;13.49;;;7.60;;
56680;SDS011;42558;52.388;13.390;2023-05-10T05:38:47;16.15;;;7.79;;
56680;SDS011;42558;52.388;13.390;2023-05-10T05:41:15;10.07;;;6.65;;
56680;SDS011;42558;52.388;13.390;2023-05-10T05:43:43;12.92;;;7.41;;
56680;SDS011;42558;52.388;13.390;2023-05-10T05:46:12;12.54;;;6.84;;
56680;SDS011;42558;52.388;13.390;2023-05-10T05:48:40;11.40;;;6.27;;
56680;SDS011;42558;52.388;13.390;2023-05-10T05:51:09;13.87;;;6.65;;
56680;SDS011;42558;52.388;13.390;2023-05-10T05:53:37;12.73;;;6.46;;
56680;SDS011;42558;52.388;13.390;2023-05-10T05:56:05;10.07;;;6.46;;
56680;SDS011;42558;52.388;13.390;2023-05-10T05:58:34;12.54;;;6.27;;
56680;SDS011;42558;52.388;13.390;2023-05-10T06:01:02;10.83;;;6.46;;
56680;SDS011;42558;52.388;13.390;2023-05-10T06:03:31;12.73;;;6.27;;
56680;SDS011;42558;52.388;13.390;2023-05-10T06:05:59;12.16;;;5.32;;
56680;SDS011;42558;52.388;13.390;2023-05-10T06:08:27;10.26;;;5.51;;
56680;SDS011;42558;52.388;13.390;2023-05-10T06:10:56;9.88;;;5.51;;
56680;SDS011;42558;52.388;13.390;2023-05-10T06:13:24;8.93;;;6.08;;
56680;SDS011;42558;52.388;13.390;2023-05-10T06:15:53;11.59;;;7.03;;
56680;SDS011;42558;52.388;13.390;2023-05-10T06:18:21;10.83;;;4.94;;
56680;SDS011;42558;52.388;13.390;2023-05-10T06:20:50;9.69;;;5.51;;
56680;SDS011;42558;52.388;13.390;2023-05-10T06:23:18;9.69;;;5.51;;
56680;SDS011;42558;52.388;13.390;2023-05-10T06:25:46;10.26;;;5.32;;
56680;SDS011;42558;52.388;13.390;2023-05-10T06:28:15;9.88;;;5.32;;
56680;SDS011;42558;52.388;13.390;2023-05-10T06:30:43;10.83;;;5.51;;
56680;SDS011;42558;52.388;13.390;2023-05-10T06:33:12;12.16;;;5.89;;
56680;SDS011;42558;52.388;13.390;2023-05-10T06:35:40;8.93;;;5.32;;
56680;SDS011;42558;52.388;13.390;2023-05-10T06:38:08;11.02;;;5.70;;
56680;SDS011;42558;52.388;13.390;2023-05-10T06:40:41;13.68;;;6.08;;
56680;SDS011;42558;52.388;13.390;2023-05-10T06:43:09;9.69;;;5.89;;
56680;SDS011;42558;52.388;13.390;2023-05-10T06:45:37;10.64;;;5.32;;
56680;SDS011;42558;52.388;13.390;2023-05-10T06:48:05;9.50;;;4.94;;
56680;SDS011;42558;52.388;13.390;2023-05-10T06:50:34;10.83;;;5.70;;
56680;SDS011;42558;52.388;13.390;2023-05-10T06:53:02;10.26;;;5.13;;
56680;SDS011;42558;52.388;13.390;2023-05-10T06:55:30;11.02;;;4.56;;
56680;SDS011;42558;52.388;13.390;2023-05-10T06:57:59;11.59;;;4.75;;
56680;SDS011;42558;52.388;13.390;2023-05-10T07:00:27;11.21;;;4.94;;
56680;SDS011;42558;52.388;13.390;2023-05-10T07:02:56;10.07;;;5.32;;
56680;SDS011;42558;52.388;13.390;2023-05-10T07:05:24;11.02;;;5.13;;
56680;SDS011;42558;52.388;13.390;2023-05-10T07:07:53;9.69;;;5.32;;
56680;SDS011;42558;52.388;13.390;2023-05-10T07:10:21;11.97;;;5.51;;
56680;SDS011;42558;52.388;13.390;2023-05-10T07:12:49;9.69;;;4.56;;
56680;SDS011;42558;52.388;13.390;2023-05-10T07:15:18;9.12;;;5.89;;
56680;SDS011;42558;52.388;13.390;2023-05-10T07:17:46;10.64;;;5.13;;
56680;SDS011;42558;52.388;13.390;2023-05-10T07:20:15;8.74;;;4.75;;
56680;SDS011;42558;52.388;13.390;2023-05-10T07:22:43;9.31;;;4.75;;
56680;SDS011;42558;52.388;13.390;2023-05-10T07:25:11;9.12;;;4.75;;
56680;SDS011;42558;52.388;13.390;2023-05-10T07:27:40;8.17;;;4.75;;
56680;SDS011;42558;52.388;13.390;2023-05-10T07:30:08;9.50;;;4.56;;
56680;SDS011;42558;52.388;13.390;2023-05-10T07:32:39;7.60;;;3.42;;
56680;SDS011;42558;52.388;13.390;2023-05-10T07:35:11;10.45;;;4.56;;
56680;SDS011;42558;52.388;13.390;2023-05-10T07:37:41;9.31;;;4.75;;
56680;SDS011;42558;52.388;13.390;2023-05-10T07:40:10;7.98;;;4.37;;
56680;SDS011;42558;52.388;13.390;2023-05-10T07:42:40;10.26;;;5.13;;
56680;SDS011;42558;52.388;13.390;2023-05-10T07:45:10;11.78;;;4.56;;
56680;SDS011;42558;52.388;13.390;2023-05-10T07:47:40;10.45;;;4.94;;
56680;SDS011;42558;52.388;13.390;2023-05-10T07:50:10;8.93;;;5.13;;
56680;SDS011;42558;52.388;13.390;2023-05-10T07:52:40;11.97;;;5.89;;
56680;SDS011;42558;52.388;13.390;2023-05-10T07:55:09;9.88;;;5.13;;
56680;SDS011;42558;52.388;13.390;2023-05-10T07:57:39;12.16;;;4.94;;
56680;SDS011;42558;52.388;13.390;2023-05-10T08:00:12;11.78;;;4.75;;
56680;SDS011;42558;52.388;13.390;2023-05-10T08:02:47;9.88;;;4.75;;
56680;SDS011;42558;52.388;13.390;2023-05-10T08:05:17;8.93;;;4.94;;
56680;SDS011;42558;52.388;13.390;2023-05-10T08:07:48;10.83;;;5.13;;
56680;SDS011;42558;52.388;13.390;2023-05-10T08:10:18;8.55;;;5.13;;
56680;SDS011;42558;52.388;13.390;2023-05-10T08:12:48;12.35;;;5.32;;
56680;SDS011;42558;52.388;13.390;2023-05-10T08:15:17;9.12;;;5.13;;
56680;SDS011;42558;52.388;13.390;2023-05-10T08:17:48;10.26;;;4.94;;
56680;SDS011;42558;52.388;13.390;2023-05-10T08:20:18;8.74;;;5.13;;
56680;SDS011;42558;52.388;13.390;2023-05-10T08:22:48;9.50;;;5.13;;
56680;SDS011;42558;52.388;13.390;2023-05-10T08:25:20;8.93;;;5.13;;
56680;SDS011;42558;52.388;13.390;2023-05-10T08:27:50;8.93;;;4.75;;
56680;SDS011;42558;52.388;13.390;2023-05-10T08:30:20;10.07;;;4.75;;
56680;SDS011;42558;52.388;13.390;2023-05-10T08:32:50;7.98;;;4.56;;
56680;SDS011;42558;52.388;13.390;2023-05-10T08:35:20;11.78;;;5.13;;
56680;SDS011;42558;52.388;13.390;2023-05-10T08:37:50;11.02;;;5.13;;
56680;SDS011;42558;52.388;13.390;2023-05-10T08:40:21;9.50;;;5.32;;
56680;SDS011;42558;52.388;13.390;2023-05-10T08:45:41;9.88;;;5.89;;
56680;SDS011;42558;52.388;13.390;2023-05-10T08:48:14;8.17;;;4.75;;
56680;SDS011;42558;52.388;13.390;2023-05-10T08:50:44;11.59;;;6.08;;
56680;SDS011;42558;52.388;13.390;2023-05-10T08:53:17;10.64;;;6.27;;
56680;SDS011;42558;52.388;13.390;2023-05-10T08:55:49;9.69;;;4.94;;
56680;SDS011;42558;52.388;13.390;2023-05-10T08:58:19;12.16;;;5.32;;
56680;SDS011;42558;52.388;13.390;2023-05-10T09:00:50;7.98;;;4.56;;
56680;SDS011;42558;52.388;13.390;2023-05-10T09:03:20;10.07;;;5.70;;
56680;SDS011;42558;52.388;13.390;2023-05-10T09:05:50;11.02;;;4.75;;
56680;SDS011;42558;52.388;13.390;2023-05-10T09:08:20;9.69;;;4.75;;
56680;SDS011;42558;52.388;13.390;2023-05-10T09:10:55;8.36;;;5.13;;
56680;SDS011;42558;52.388;13.390;2023-05-10T09:13:25;7.79;;;5.32;;
56680;SDS011;42558;52.388;13.390;2023-05-10T09:15:55;7.98;;;4.75;;
56680;SDS011;42558;52.388;13.390;2023-05-10T09:18:30;9.50;;;4.94;;
56680;SDS011;42558;52.388;13.390;2023-05-10T09:21:00;10.83;;;4.94;;
56680;SDS011;42558;52.388;13.390;2023-05-10T09:23:31;9.12;;;5.51;;
56680;SDS011;42558;52.388;13.390;2023-05-10T09:26:05;11.21;;;5.51;;
56680;SDS011;42558;52.388;13.390;2023-05-10T09:28:50;9.69;;;6.27;;
56680;SDS011;42558;52.388;13.390;2023-05-10T09:31:44;8.55;;;5.32;;
56680;SDS011;42558;52.388;13.390;2023-05-10T09:34:18;8.36;;;5.51;;
56680;SDS011;42558;52.388;13.390;2023-05-10T09:36:56;8.36;;;4.94;;
56680;SDS011;42558;52.388;13.390;2023-05-10T09:39:34;9.69;;;5.13;;
56680;SDS011;42558;52.388;13.390;2023-05-10T09:42:08;8.93;;;5.51;;
56680;SDS011;42558;52.388;13.390;2023-05-10T09:44:42;10.26;;;5.70;;
56680;SDS011;42558;52.388;13.390;2023-05-10T09:47:17;8.93;;;4.75;;
56680;SDS011;42558;52.388;13.390;2023-05-10T09:49:52;9.31;;;5.13;;
56680;SDS011;42558;52.388;13.390;2023-05-10T09:52:24;8.74;;;5.13;;
56680;SDS011;42558;52.388;13.390;2023-05-10T09:54:54;9.69;;;5.32;;
56680;SDS011;42558;52.388;13.390;2023-05-10T09:57:24;8.55;;;5.13;;
56680;SDS011;42558;52.388;13.390;2023-05-10T09:59:55;8.36;;;5.70;;
56680;SDS011;42558;52.388;13.390;2023-05-10T10:02:30;7.60;;;4.56;;
56680;SDS011;42558;52.388;13.390;2023-05-10T10:05:02;8.17;;;4.94;;
56680;SDS011;42558;52.388;13.390;2023-05-10T10:07:33;10.26;;;5.32;;
56680;SDS011;42558;52.388;13.390;2023-05-10T10:10:05;9.31;;;5.70;;
56680;SDS011;42558;52.388;13.390;2023-05-10T10:12:41;11.59;;;5.51;;
56680;SDS011;42558;52.388;13.390;2023-05-10T10:15:11;9.31;;;5.70;;
56680;SDS011;42558;52.388;13.390;2023-05-10T10:17:45;11.40;;;5.89;;
56680;SDS011;42558;52.388;13.390;2023-05-10T10:20:17;8.36;;;5.13;;
56680;SDS011;42558;52.388;13.390;2023-05-10T10:22:48;9.12;;;5.51;;
56680;SDS011;42558;52.388;13.390;2023-05-10T10:25:20;8.55;;;5.13;;
56680;SDS011;42558;52.388;13.390;2023-05-10T10:30:43;8.74;;;4.75;;
56680;SDS011;42558;52.388;13.390;2023-05-10T10:33:38;7.98;;;5.13;;
56680;SDS011;42558;52.388;13.390;2023-05-10T10:36:20;10.26;;;4.75;;
56680;SDS011;42558;52.388;13.390;2023-05-10T10:52:20;10.45;;;5.32;;
56680;SDS011;42558;52.388;13.390;2023-05-10T10:55:06;8.74;;;4.75;;
56680;SDS011;42558;52.388;13.390;2023-05-10T11:03:11;10.07;;;5.51;;
56680;SDS011;42558;52.388;13.390;2023-05-10T11:05:49;8.93;;;4.94;;
56680;SDS011;42558;52.388;13.390;2023-05-10T11:08:29;11.02;;;5.51;;
56680;SDS011;42558;52.388;13.390;2023-05-10T11:13:41;14.63;;;4.94;;
56680;SDS011;42558;52.388;13.390;2023-05-10T11:16:21;10.07;;;5.51;;
56680;SDS011;42558;52.388;13.390;2023-05-10T11:19:01;8.74;;;4.56;;
56680;SDS011;42558;52.388;13.390;2023-05-10T11:21:34;10.45;;;5.32;;
56680;SDS011;42558;52.388;13.390;2023-05-10T11:24:16;9.12;;;4.56;;
56680;SDS011;42558;52.388;13.390;2023-05-10T11:26:50;10.26;;;4.75;;
56680;SDS011;42558;52.388;13.390;2023-05-10T11:29:21;8.93;;;5.13;;
56680;SDS011;42558;52.388;13.390;2023-05-10T11:31:51;8.55;;;4.37;;
56680;SDS011;42558;52.388;13.390;2023-05-10T11:34:29;9.69;;;4.56;;
56680;SDS011;42558;52.388;13.390;2023-05-10T11:37:00;10.64;;;4.75;;
56680;SDS011;42558;52.388;13.390;2023-05-10T11:39:31;8.74;;;4.75;;
56680;SDS011;42558;52.388;13.390;2023-05-10T11:42:03;8.17;;;4.94;;
56680;SDS011;42558;52.388;13.390;2023-05-10T11:44:36;8.17;;;4.56;;
56680;SDS011;42558;52.388;13.390;2023-05-10T11:47:06;14.82;;;4.75;;
56680;SDS011;42558;52.388;13.390;2023-05-10T11:49:34;9.31;;;4.94;;
56680;SDS011;42558;52.388;13.390;2023-05-10T11:52:06;7.79;;;4.37;;
56680;SDS011;42558;52.388;13.390;2023-05-10T11:54:34;8.17;;;4.56;;
56680;SDS011;42558;52.388;13.390;2023-05-10T11:57:03;8.36;;;4.75;;
56680;SDS011;42558;52.388;13.390;2023-05-10T11:59:31;10.64;;;4.75;;
56680;SDS011;42558;52.388;13.390;2023-05-10T12:02:00;9.50;;;5.13;;
56680;SDS011;42558;52.388;13.390;2023-05-10T12:04:28;8.93;;;4.94;;
56680;SDS011;42558;52.388;13.390;2023-05-10T12:06:56;11.02;;;5.13;;
56680;SDS011;42558;52.388;13.390;2023-05-10T12:09:25;8.74;;;4.75;;
56680;SDS011;42558;52.388;13.390;2023-05-10T12:12:17;8.36;;;5.13;;
56680;SDS011;42558;52.388;13.390;2023-05-10T12:14:50;12.92;;;5.32;;
56680;SDS011;42558;52.388;13.390;2023-05-10T12:17:20;13.30;;;5.70;;
56680;SDS011;42558;52.388;13.390;2023-05-10T12:19:50;8.93;;;5.32;;
56680;SDS011;42558;52.388;13.390;2023-05-10T12:22:20;14.82;;;6.27;;
56680;SDS011;42558;52.388;13.390;2023-05-10T12:24:51;10.83;;;4.94;;
56680;SDS011;42558;52.388;13.390;2023-05-10T12:27:21;9.88;;;5.70;;
56680;SDS011;42558;52.388;13.390;2023-05-10T12:29:51;11.21;;;5.51;;
56680;SDS011;42558;52.388;13.390;2023-05-10T12:32:20;8.17;;;4.75;;
56680;SDS011;42558;52.388;13.390;2023-05-10T12:34:52;10.83;;;4.75;;
56680;SDS011;42558;52.388;13.390;2023-05-10T12:37:24;9.88;;;5.13;;
56680;SDS011;42558;52.388;13.390;2023-05-10T12:39:57;8.74;;;4.94;;
56680;SDS011;42558;52.388;13.390;2023-05-10T12:42:26;9.69;;;4.94;;
56680;SDS011;42558;52.388;13.390;2023-05-10T12:44:56;18.05;;;5.51;;
56680;SDS011;42558;52.388;13.390;2023-05-10T12:47:26;11.97;;;5.51;;
56680;SDS011;42558;52.388;13.390;2023-05-10T12:49:56;8.93;;;4.94;;
56680;SDS011;42558;52.388;13.390;2023-05-10T12:52:27;10.64;;;5.51;;
56680;SDS011;42558;52.388;13.390;2023-05-10T12:54:59;11.02;;;5.32;;
56680;SDS011;42558;52.388;13.390;2023-05-10T12:57:29;10.64;;;5.32;;
56680;SDS011;42558;52.388;13.390;2023-05-10T13:00:00;10.26;;;5.32;;
56680;SDS011;42558;52.388;13.390;2023-05-10T13:02:29;11.59;;;5.89;;
56680;SDS011;42558;52.388;13.390;2023-05-10T13:04:59;9.88;;;5.13;;
56680;SDS011;42558;52.388;13.390;2023-05-10T13:07:29;9.12;;;5.13;;
56680;SDS011;42558;52.388;13.390;2023-05-10T13:09:59;8.93;;;5.13;;
56680;SDS011;42558;52.388;13.390;2023-05-10T13:12:29;9.88;;;5.70;;
56680;SDS011;42558;52.388;13.390;2023-05-10T13:14:59;8.36;;;4.94;;
56680;SDS011;42558;52.388;13.390;2023-05-10T13:17:29;7.98;;;4.94;;
56680;SDS011;42558;52.388;13.390;2023-05-10T13:20:01;7.22;;;4.75;;
56680;SDS011;42558;52.388;13.390;2023-05-10T13:22:31;7.60;;;4.56;;
56680;SDS011;42558;52.388;13.390;2023-05-10T13:25:09;7.98;;;4.56;;
56680;SDS011;42558;52.388;13.390;2023-05-10T13:27:40;8.93;;;5.32;;
56680;SDS011;42558;52.388;13.390;2023-05-10T13:30:10;9.31;;;5.13;;
56680;SDS011;42558;52.388;13.390;2023-05-10T13:32:40;10.07;;;5.51;;
56680;SDS011;42558;52.388;13.390;2023-05-10T13:35:10;8.17;;;5.32;;
56680;SDS011;42558;52.388;13.390;2023-05-10T13:37:40;9.31;;;4.94;;
56680;SDS011;42558;52.388;13.390;2023-05-10T13:40:10;9.12;;;4.75;;
56680;SDS011;42558;52.388;13.390;2023-05-10T13:42:40;11.21;;;5.32;;
56680;SDS011;42558;52.388;13.390;2023-05-10T13:45:11;8.55;;;5.13;;
56680;SDS011;42558;52.388;13.390;2023-05-10T13:47:42;9.88;;;4.75;;
56680;SDS011;42558;52.388;13.390;2023-05-10T13:50:12;8.74;;;5.32;;
56680;SDS011;42558;52.388;13.390;2023-05-10T13:52:42;7.98;;;5.32;;
56680;SDS011;42558;52.388;13.390;2023-05-10T13:55:12;10.83;;;5.32;;
56680;SDS011;42558;52.388;13.390;2023-05-10T13:57:42;10.83;;;4.94;;
56680;SDS011;42558;52.388;13.390;2023-05-10T14:00:13;7.98;;;5.70;;
56680;SDS011;42558;52.388;13.390;2023-05-10T14:02:43;10.64;;;4.94;;
56680;SDS011;42558;52.388;13.390;2023-05-10T14:05:13;9.31;;;5.13;;
56680;SDS011;42558;52.388;13.390;2023-05-10T14:07:43;7.60;;;5.32;;
56680;SDS011;42558;52.388;13.390;2023-05-10T14:10:13;8.55;;;5.13;;
56680;SDS011;42558;52.388;13.390;2023-05-10T14:12:42;10.45;;;5.13;;
56680;SDS011;42558;52.388;13.390;2023-05-10T14:15:12;8.36;;;5.13;;
56680;SDS011;42558;52.388;13.390;2023-05-10T14:17:42;7.22;;;4.94;;
56680;SDS011;42558;52.388;13.390;2023-05-10T14:20:12;7.41;;;4.75;;
56680;SDS011;42558;52.388;13.390;2023-05-10T14:22:42;8.74;;;5.13;;
56680;SDS011;42558;52.388;13.390;2023-05-10T14:25:12;11.40;;;5.13;;
56680;SDS011;42558;52.388;13.390;2023-05-10T14:27:44;8.74;;;4.75;;
56680;SDS011;42558;52.388;13.390;2023-05-10T14:30:14;8.74;;;4.37;;
56680;SDS011;42558;52.388;13.390;2023-05-10T14:32:42;8.93;;;4.56;;
56680;SDS011;42558;52.388;13.390;2023-05-10T14:35:11;7.79;;;5.13;;
56680;SDS011;42558;52.388;13.390;2023-05-10T14:38:17;7.98;;;4.94;;
56680;SDS011;42558;52.388;13.390;2023-05-10T14:40:47;8.36;;;4.56;;
56680;SDS011;42558;52.388;13.390;2023-05-10T14:43:17;7.41;;;4.56;;
56680;SDS011;42558;52.388;13.390;2023-05-10T14:45:47;10.07;;;4.94;;
56680;SDS011;42558;52.388;13.390;2023-05-10T14:48:17;7.41;;;4.75;;
56680;SDS011;42558;52.388;13.390;2023-05-10T14:50:47;8.36;;;5.13;;
56680;SDS011;42558;52.388;13.390;2023-05-10T14:53:19;8.93;;;5.51;;
56680;SDS011;42558;52.388;13.390;2023-05-10T14:55:49;8.93;;;4.75;;
56680;SDS011;42558;52.388;13.390;2023-05-10T14:58:19;8.74;;;5.32;;
56680;SDS011;42558;52.388;13.390;2023-05-10T15:00:49;7.98;;;4.56;;
56680;SDS011;42558;52.388;13.390;2023-05-10T15:03:19;9.69;;;4.94;;
56680;SDS011;42558;52.388;13.390;2023-05-10T15:05:50;10.07;;;5.13;;
56680;SDS011;42558;52.388;13.390;2023-05-10T15:08:21;7.41;;;4.37;;
56680;SDS011;42558;52.388;13.390;2023-05-10T15:10:51;10.07;;;5.51;;
56680;SDS011;42558;52.388;13.390;2023-05-10T15:13:21;7.79;;;4.56;;
56680;SDS011;42558;52.388;13.390;2023-05-10T15:15:51;7.60;;;4.37;;
56680;SDS011;42558;52.388;13.390;2023-05-10T15:18:21;9.69;;;4.94;;
56680;SDS011;42558;52.388;13.390;2023-05-10T15:20:53;7.98;;;4.94;;
56680;SDS011;42558;52.388;13.390;2023-05-10T15:23:21;10.64;;;5.51;;
56680;SDS011;42558;52.388;13.390;2023-05-10T15:25:50;8.55;;;5.32;;
56680;SDS011;42558;52.388;13.390;2023-05-10T15:28:21;10.83;;;4.94;;